Latest Weather Observations for Merimbula

IDN60801

Issued at 6:32 pm EST Saturday 24 June 2017 (issued every 30 minutes, with the page automatically refreshed every 10 minutes)

About weather observations | Map of weather stations | Latest weather observations for NSW | Other Formats
Station Details ID: 069147 Name: MERIMBULA AIRPORT AWS Lat: -36.91 Lon: 149.90 Height: 1.5 m
Data from the previous 72 hours. | See also: Recent months at Merimbula
Date/Time
EST
Temp
°C
App
Temp
°C
Dew
Point
°C
Rel
Hum
%
Delta-T
°C
Wind Press
QNH
hPa
Press
MSL
hPa
Rain since
9am
mm
Dir  Spd
km/h
Gust
km/h
Spd
kts
Gust
kts
24/06:30pm 5.4 3.8 2.4 81 1.2 CALM 0 9 0 5 1016.7 1016.7 0.0
24/06:00pm 6.6 3.7 2.7 76 1.6 SW 7 11 4 6 1016.5 1016.5 0.0
24/05:30pm 8.1 5.3 3.0 70 2.2 S 7 11 4 6 1016.3 1016.3 0.0
24/05:00pm 9.1 7.3 3.3 67 2.5 NNE 2 7 1 4 1016.0 1016.0 0.0
24/04:30pm 11.2 7.3 3.3 58 3.5 SSW 13 17 7 9 1015.7 1015.7 0.0
24/04:00pm 12.7 9.1 2.8 51 4.3 SSW 11 17 6 9 1015.7 1015.7 0.0
24/03:30pm 13.1 8.7 2.6 49 4.6 SSW 15 26 8 14 1015.5 1015.5 0.0
24/03:00pm 13.6 9.1 2.2 46 5.0 SSW 15 24 8 13 1015.5 1015.5 0.0
24/02:30pm 14.0 10.0 2.6 46 5.0 SSW 13 22 7 12 1015.4 1015.4 0.0
24/02:00pm 14.6 9.8 2.8 45 5.3 SSW 17 20 9 11 1015.3 1015.3 0.0
24/01:30pm 14.5 10.5 2.7 45 5.3 SW 13 20 7 11 1015.5 1015.5 0.0
24/01:00pm 13.8 9.5 3.3 49 4.7 SW 15 20 8 11 1015.7 1015.7 0.0
24/12:30pm 13.4 9.1 3.2 50 4.5 SW 15 24 8 13 1015.9 1015.9 0.0
24/12:00pm 13.8 8.5 3.0 48 4.8 SSW 20 32 11 17 1016.0 1016.0 0.0
24/11:30am 13.4 8.3 3.2 50 4.5 SW 19 32 10 17 1016.2 1016.2 0.0
24/11:00am 13.3 9.5 3.9 53 4.2 WSW 13 20 7 11 1016.5 1016.5 0.0
24/10:30am 12.1 7.5 3.9 57 3.7 SW 17 28 9 15 1016.6 1016.6 0.0
24/10:00am 12.6 7.9 5.1 60 3.5 SW 19 28 10 15 1016.7 1016.7 0.0
24/09:30am 11.1 7.7 5.8 70 2.5 SW 13 19 7 10 1016.5 1016.5 0.0
24/09:00am 9.7 6.7 6.2 79 1.6 SSW 11 15 6 8 1016.3 1016.3 0.0
24/08:30am 8.6 6.3 5.7 82 1.3 SSW 7 11 4 6 1016.0 1016.0 0.0
24/08:00am 9.1 6.5 6.2 82 1.3 SSW 9 13 5 7 1015.4 1015.4 0.0
24/07:30am 8.5 5.7 6.8 89 0.8 WSW 11 15 6 8 1015.0 1015.0 0.0
24/07:00am 4.8 3.0 3.6 92 0.5 W 2 9 1 5 1014.5 1014.5 0.0
24/06:30am 4.4 2.2 3.4 93 0.4 NW 4 9 2 5 1013.9 1013.9 0.0
24/06:00am 4.3 2.0 3.0 91 0.5 SW 4 9 2 5 1013.2 1013.2 0.0
24/05:30am 4.4 1.3 3.4 93 0.4 SW 9 11 5 6 1012.8 1012.8 0.0
24/05:00am 3.0 1.3 2.0 93 0.4 CALM 0 0 0 0 1012.2 1012.2 0.0
24/04:30am 3.1 1.4 1.9 92 0.5 CALM 0 0 0 0 1011.8 1011.8 0.0
24/04:00am 3.2 1.1 1.9 91 0.5 SSW 2 7 1 4 1011.9 1011.9 0.0
24/03:30am 4.2 2.3 2.7 90 0.6 NW 2 6 1 3 1011.9 1011.9 0.0
24/03:00am 5.3 2.3 4.0 91 0.5 NW 9 13 5 7 1011.9 1011.9 0.0
24/02:30am 4.8 1.7 3.6 92 0.5 WNW 9 13 5 7 1011.8 1011.8 0.0
24/02:00am 4.8 3.3 3.0 88 0.7 CALM 0 0 0 0 1011.8 1011.8 0.0
24/01:30am 6.1 3.1 3.9 86 0.9 NNW 9 15 5 8 1011.8 1011.8 0.0
24/01:00am 5.2 3.4 3.4 88 0.7 NW 2 11 1 6 1011.8 1011.8 0.0
24/12:30am 6.2 3.7 3.9 85 1.0 N 6 11 3 6 1011.9 1011.9 0.0
24/12:00am 7.4 3.9 5.4 87 0.9 NW 13 15 7 8 1012.0 1012.0 0.0
 
Date/Time
EST
Temp
°C
App
Temp
°C
Dew
Point
°C
Rel
Hum
%
Delta-T
°C
Wind Press
QNH
hPa
Press
MSL
hPa
Rain since
9am
mm
Dir  Spd
km/h
Gust
km/h
Spd
kts
Gust
kts
23/11:30pm 7.0 4.0 5.8 92 0.5 NW 11 15 6 8 1011.9 1011.9 0.0
23/11:00pm 5.3 4.0 4.1 92 0.5 CALM 0 6 0 3 1012.3 1012.3 0.0
23/10:30pm 5.8 4.6 4.4 91 0.6 CALM 0 0 0 0 1012.6 1012.6 0.0
23/10:00pm 6.4 5.3 5.2 92 0.5 CALM 0 0 0 0 1012.5 1012.5 0.0
23/09:30pm 7.3 6.5 6.6 95 0.3 CALM 0 0 0 0 1012.6 1012.6 0.0
23/09:00pm 5.2 3.8 3.4 88 0.7 CALM 0 7 0 4 1012.5 1012.5 0.0
23/08:30pm 5.4 3.6 3.3 86 0.9 SW 2 7 1 4 1012.5 1012.5 0.0
23/08:00pm 6.3 3.4 4.5 88 0.8 SW 9 13 5 7 1012.6 1012.6 0.0
23/07:30pm 6.5 4.6 5.0 90 0.7 WNW 4 11 2 6 1012.4 1012.4 0.0
23/07:00pm 6.9 4.4 4.9 87 0.9 SW 7 9 4 5 1012.3 1012.3 0.0
23/06:30pm 7.6 6.4 4.7 82 1.3 CALM 0 7 0 4 1012.4 1012.4 0.0
23/06:00pm 9.2 7.0 6.3 82 1.3 WNW 7 11 4 6 1012.2 1012.2 0.0
23/05:30pm 9.8 7.3 6.5 80 1.5 NW 9 11 5 6 1012.3 1012.3 0.0
23/05:00pm 10.5 9.4 5.3 70 2.4 CALM 0 0 0 0 1012.3 1012.3 0.0
23/04:30pm 13.6 11.7 6.7 63 3.3 NE 6 11 3 6 1012.2 1012.2 0.0
23/04:00pm 15.1 12.3 6.9 58 4.0 NNE 11 17 6 9 1012.4 1012.4 0.0
23/03:30pm 17.8 14.7 0.0 30 7.7 W 6 13 3 7 1012.6 1012.6 0.0
23/03:00pm 18.1 14.3 1.6 33 7.4 WSW 11 17 6 9 1012.7 1012.7 0.0
23/02:30pm 17.7 15.2 3.9 40 6.5 NW 6 13 3 7 1012.9 1012.9 0.0
23/02:00pm 16.8 14.2 6.3 50 5.1 N 9 15 5 8 1013.3 1013.3 0.0
23/01:30pm 16.8 15.6 4.8 45 5.7 CALM 0 0 0 0 1013.6 1013.6 0.0
23/01:00pm 16.8 15.6 4.8 45 5.7 CALM 0 0 0 0 1014.1 1014.1 0.0
23/12:30pm 16.8 15.8 5.4 47 5.5 CALM 0 0 0 0 1014.4 1014.4 0.0
23/12:00pm 16.1 14.8 3.9 44 5.6 CALM 0 0 0 0 1015.3 1015.3 0.0
23/11:30am 15.3 13.1 6.3 55 4.4 NW 7 11 4 6 1016.4 1016.4 0.0
23/11:00am 14.5 11.9 6.3 58 3.9 WNW 9 11 5 6 1017.1 1017.1 0.0
23/10:30am 13.8 11.3 6.4 61 3.5 NW 9 15 5 8 1017.9 1017.9 0.0
23/10:00am 12.9 10.4 6.5 65 3.0 NW 9 13 5 7 1018.4 1018.4 0.0
23/09:30am 11.9 9.7 6.2 68 2.7 W 7 9 4 5 1018.6 1018.6 0.0
23/09:00am 10.2 7.1 7.1 81 1.5 WNW 13 15 7 8 1018.8 1018.8 0.0
23/08:30am 8.4 5.2 7.0 91 0.7 NW 13 15 7 8 1019.1 1019.1 0.0
23/08:00am 6.9 3.9 6.2 95 0.3 NW 11 15 6 8 1019.5 1019.5 0.0
23/07:30am 6.6 3.2 6.0 96 0.3 NW 13 15 7 8 1019.4 1019.4 0.0
23/07:16am 6.1 3.4 5.4 95 0.3 NNW 9 13 5 7 1019.2 1019.2 0.0
23/07:00am 5.2 3.5 4.2 93 0.4 WNW 2 9 1 5 1019.2 1019.2 0.0
23/06:58am 5.2 3.9 4.3 94 0.4 CALM 0 6 0 3 1019.1 1019.1 0.0
23/06:30am 6.3 4.2 5.6 95 0.3 NW 6 9 3 5 1019.0 1019.0 0.0
23/06:00am 6.7 4.5 6.0 95 0.3 NW 7 9 4 5 1019.4 1019.4 0.0
23/05:30am 5.8 3.5 4.8 93 0.4 W 6 9 3 5 1019.7 1019.7 0.0
23/05:00am 6.5 4.2 5.6 94 0.4 W 7 11 4 6 1019.6 1019.6 0.0
23/04:30am 7.2 4.6 6.3 94 0.4 NW 9 13 5 7 1019.8 1019.8 0.0
23/04:00am 7.5 5.4 6.6 94 0.4 W 7 11 4 6 1020.1 1020.1 0.0
23/03:30am 7.5 5.1 6.8 95 0.3 NW 9 13 5 7 1020.4 1020.4 0.0
23/03:00am 6.7 5.6 5.3 91 0.6 CALM 0 0 0 0 1020.9 1020.9 0.0
23/02:30am 7.2 6.2 5.8 91 0.6 CALM 0 0 0 0 1021.2 1021.2 0.0
23/02:00am 8.1 7.3 6.6 90 0.7 CALM 0 0 0 0 1021.3 1021.3 0.0
23/01:30am 8.7 8.1 7.2 90 0.7 CALM 0 0 0 0 1021.5 1021.5 0.0
23/01:00am 8.8 8.1 7.1 89 0.8 CALM 0 0 0 0 1021.6 1021.6 0.0
23/12:30am 9.3 8.9 8.1 92 0.6 CALM 0 0 0 0 1021.8 1021.8 0.0
23/12:00am 9.0 8.4 7.3 89 0.8 CALM 0 0 0 0 1022.3 1022.3 0.0
 
Date/Time
EST
Temp
°C
App
Temp
°C
Dew
Point
°C
Rel
Hum
%
Delta-T
°C
Wind Press
QNH
hPa
Press
MSL
hPa
Rain since
9am
mm
Dir  Spd
km/h
Gust
km/h
Spd
kts
Gust
kts
22/11:30pm 9.0 8.4 7.3 89 0.8 CALM 0 0 0 0 1023.1 1023.1 0.0
22/11:00pm 9.1 8.1 7.4 89 0.8 SW 2 7 1 4 1023.4 1023.4 0.0
22/10:30pm 9.4 7.6 7.8 90 0.8 WNW 7 11 4 6 1023.5 1023.5 0.0
22/10:00pm 9.5 7.4 8.1 91 0.7 NW 9 11 5 6 1023.8 1023.8 0.0
22/09:30pm 9.0 6.7 7.6 91 0.7 NW 9 13 5 7 1024.1 1024.1 0.0
22/09:00pm 8.4 7.8 7.2 92 0.6 CALM 0 0 0 0 1024.2 1024.2 0.0
22/08:30pm 8.2 7.5 6.8 91 0.6 CALM 0 0 0 0 1024.5 1024.5 0.0
22/08:00pm 8.8 6.9 7.6 92 0.6 NW 7 11 4 6 1024.5 1024.5 0.0
22/07:30pm 8.6 6.6 7.1 90 0.7 WSW 7 7 4 4 1024.6 1024.6 0.0
22/07:00pm 9.3 7.1 7.9 91 0.7 WNW 9 11 5 6 1024.8 1024.8 0.0
22/06:30pm 8.8 6.9 6.9 88 0.9 SW 6 7 3 4 1024.6 1024.6 0.0
22/06:00pm 9.5 7.7 7.3 86 1.0 WNW 6 9 3 5 1024.7 1024.7 0.0
22/05:30pm 10.1 9.6 7.7 85 1.2 CALM 0 0 0 0 1024.2 1024.2 0.0
22/05:00pm 10.8 10.1 6.9 77 1.8 CALM 0 0 0 0 1024.0 1024.0 0.0
22/04:30pm 12.5 11.9 7.4 71 2.5 CALM 0 0 0 0 1024.1 1024.1 0.0
22/04:00pm 13.5 11.5 7.1 65 3.1 NE 7 11 4 6 1024.2 1024.2 0.0
22/03:30pm 14.6 12.2 7.2 61 3.6 NE 9 13 5 7 1024.2 1024.2 0.0
22/03:00pm 15.7 13.0 7.5 58 4.1 ENE 11 17 6 9 1024.3 1024.3 0.0
22/02:30pm 15.3 12.4 6.6 56 4.2 ENE 11 17 6 9 1024.6 1024.6 0.0
22/02:00pm 16.0 13.6 7.0 55 4.4 ENE 9 15 5 8 1024.7 1024.7 0.0
22/01:30pm 16.1 13.7 7.1 55 4.5 E 9 13 5 7 1025.1 1025.1 0.0
22/01:00pm 16.0 13.5 6.7 54 4.5 ESE 9 17 5 9 1025.2 1025.2 0.0
22/12:30pm 15.3 13.1 6.1 54 4.4 E 7 15 4 8 1025.6 1025.6 0.0
22/12:00pm 15.9 13.7 7.7 58 4.1 ESE 9 13 5 7 1026.1 1026.1 0.0
22/11:30am 15.2 12.6 6.2 55 4.3 ESE 9 13 5 7 1026.9 1026.9 0.0
22/11:00am 15.1 14.2 5.9 54 4.4 CALM 0 0 0 0 1027.3 1027.3 0.0
22/10:30am 14.4 13.9 7.9 65 3.2 CALM 0 0 0 0 1027.8 1027.8 0.0
22/10:00am 12.7 12.1 7.4 70 2.6 CALM 0 0 0 0 1028.2 1028.2 0.0
22/09:30am 10.4 9.8 7.6 83 1.3 CALM 0 0 0 0 1028.5 1028.5 0.0
22/09:00am 8.3 7.6 6.8 90 0.7 CALM 0 0 0 0 1028.6 1028.6 0.0
22/08:30am 7.1 6.2 6.2 94 0.4 CALM 0 0 0 0 1028.7 1028.7 0.0
22/08:00am 6.3 5.2 5.3 93 0.4 CALM 0 0 0 0 1028.7 1028.7 0.0
22/07:30am 5.8 4.5 4.3 90 0.6 CALM 0 0 0 0 1028.7 1028.7 0.0
22/07:00am 6.9 5.9 5.7 92 0.5 CALM 0 0 0 0 1028.4 1028.4 0.0
22/06:30am 7.0 6.0 5.8 92 0.5 CALM 0 0 0 0 1028.3 1028.3 0.0
22/06:00am 7.0 6.0 5.6 91 0.6 CALM 0 0 0 0 1027.9 1027.9 0.0
22/05:30am 7.3 6.4 5.9 91 0.6 CALM 0 0 0 0 1027.8 1027.8 0.0
22/05:00am 7.5 6.6 6.0 90 0.7 CALM 0 0 0 0 1027.9 1027.9 0.0
22/04:30am 7.3 6.4 5.9 91 0.6 CALM 0 0 0 0 1027.9 1027.9 0.0
22/04:00am 7.0 6.0 5.8 92 0.5 CALM 0 0 0 0 1027.8 1027.8 0.0
22/03:30am 7.0 6.0 5.5 90 0.7 CALM 0 0 0 0 1028.0 1028.0 0.0
22/03:00am 7.4 6.4 5.7 89 0.8 CALM 0 0 0 0 1028.2 1028.2 0.0
22/02:30am 7.5 6.5 5.6 88 0.8 CALM 0 0 0 0 1028.3 1028.3 0.0
22/02:00am 8.1 7.3 6.7 91 0.6 CALM 0 0 0 0 1028.4 1028.4 0.0
22/01:30am 7.4 6.6 6.3 93 0.5 CALM 0 0 0 0 1028.6 1028.6 0.0
22/01:00am 6.7 5.6 5.0 89 0.7 CALM 0 0 0 0 1028.5 1028.5 0.0
22/12:30am 7.2 6.0 4.7 84 1.1 CALM 0 0 0 0 1028.6 1028.6 0.0
22/12:00am 8.4 6.2 6.0 85 1.1 SSW 7 11 4 6 1029.0 1029.0 0.0
 
Date/Time
EST
Temp
°C
App
Temp
°C
Dew
Point
°C
Rel
Hum
%
Delta-T
°C
Wind Press
QNH
hPa
Press
MSL
hPa
Rain since
9am
mm
Dir  Spd
km/h
Gust
km/h
Spd
kts
Gust
kts
21/11:30pm 8.4 6.2 6.2 86 1.0 SW 7 9 4 5 1029.2 1029.2 0.0
21/11:00pm 8.3 6.1 6.4 88 0.9 WSW 7 11 4 6 1029.4 1029.4 0.0
21/10:30pm 7.1 4.4 5.6 90 0.7 SW 9 11 5 6 1029.5 1029.5 0.0
21/10:00pm 8.2 5.3 6.7 90 0.7 NW 11 13 6 7 1029.3 1029.3 0.0
21/09:30pm 7.3 5.1 5.3 87 0.9 W 6 11 3 6 1029.3 1029.3 0.0
21/09:00pm 7.5 6.2 6.1 91 0.6 WNW 2 13 1 7 1029.1 1029.1 0.0
21/08:30pm 7.8 5.6 6.3 90 0.7 SW 7 9 4 5 1029.2 1029.2 0.0
21/08:00pm 7.1 4.9 5.1 87 0.9 SW 6 9 3 5 1029.1 1029.1 0.0
21/07:30pm 8.3 5.9 5.4 82 1.3 SSW 7 11 4 6 1029.1 1029.1 0.0
21/07:00pm 9.4 6.8 6.3 81 1.4 SSE 9 13 5 7 1028.7 1028.7 0.0

Other Formats:

Comma delimited format used in spreadsheet applications
http://www.bom.gov.au/fwo/IDN60801/IDN60801.95929.axf

JavaScript Object Notation format (JSON) in row-major order
http://www.bom.gov.au/fwo/IDN60801/IDN60801.95929.json